Time;durP1;ratioP1;P1;durP2;ratioP2;P2;SDS_P1;SDS_P2;PMS_P1;PMS_P2;Temp;Humidity;BMP_temperature;BMP_pressure;BME280_temperature;BME280_humidity;BME280_pressure;Samples;Min_cycle;Max_cycle;Signal;HPM_P1;HPM_P2
2022/12/12 00:01:56;;;;;;;32.13;22.48;;;0.20;99.90;;;;;;5164685;27;20046;-72
2022/12/12 00:04:22;;;;;;;31.95;21.38;;;0.20;99.90;;;;;;5056862;28;20763;-72
2022/12/12 00:06:47;;;;;;;32.88;21.83;;;0.20;99.90;;;;;;5044827;28;20128;-72
2022/12/12 00:09:13;;;;;;;33.45;22.20;;;0.20;99.90;;;;;;5029929;28;20038;-73
2022/12/12 00:11:39;;;;;;;34.67;23.27;;;0.20;99.90;;;;;;4913501;28;20191;-72
2022/12/12 00:14:05;;;;;;;30.65;21.20;;;0.20;99.90;;;;;;4818024;29;20055;-72
2022/12/12 00:16:31;;;;;;;33.15;22.80;;;0.20;99.90;;;;;;4551887;30;20115;-72
2022/12/12 00:20:27;;;;;;;32.03;22.10;;;0.20;99.90;;;;;;5194867;27;20129;-72
2022/12/12 00:22:53;;;;;;;31.88;22.40;;;0.20;99.90;;;;;;5149345;27;20046;-72
2022/12/12 00:25:18;;;;;;;29.60;21.63;;;0.20;99.90;;;;;;5153452;27;20038;-73
2022/12/12 00:27:44;;;;;;;30.40;20.70;;;0.20;99.90;;;;;;5142830;27;20042;-73
2022/12/12 00:30:10;;;;;;;28.65;21.00;;;0.20;99.90;;;;;;5033646;28;20045;-72
2022/12/12 00:32:36;;;;;;;30.98;21.42;;;0.20;99.90;;;;;;4925348;28;20045;-72
2022/12/12 00:35:01;;;;;;;31.40;21.58;;;0.20;99.90;;;;;;4739753;29;20573;-73
2022/12/12 00:37:27;;;;;;;31.63;20.98;;;0.20;99.90;;;;;;4514308;30;20054;-72
2022/12/12 00:41:54;;;;;;;29.13;21.10;;;0.20;99.90;;;;;;5202655;27;20230;-73
2022/12/12 00:44:20;;;;;;;29.15;21.15;;;0.20;99.90;;;;;;5137625;27;20042;-72
2022/12/12 00:46:45;;;;;;;29.65;22.17;;;0.20;99.90;;;;;;5156166;27;20133;-72
2022/12/12 00:49:12;;;;;;;31.45;22.13;;;0.20;99.90;;;;;;5140979;27;20035;-73
2022/12/12 00:51:37;;;;;;;32.10;22.70;;;0.20;99.90;;;;;;5061099;28;20039;-73
2022/12/12 00:54:03;;;;;;;31.98;22.45;;;0.20;99.90;;;;;;4921194;28;20699;-73
2022/12/12 00:56:29;;;;;;;31.95;21.92;;;0.20;99.90;;;;;;4846711;29;20053;-73
2022/12/12 00:58:55;;;;;;;31.65;22.83;;;0.20;99.90;;;;;;4729949;29;20047;-73
2022/12/12 01:03:53;;;;;;;29.73;21.60;;;0.20;99.90;;;;;;5194579;27;20355;-73
2022/12/12 01:06:19;;;;;;;31.02;21.02;;;0.20;99.90;;;;;;5130256;27;20047;-73
2022/12/12 01:08:44;;;;;;;31.83;21.58;;;0.20;99.90;;;;;;5100477;28;20044;-74
2022/12/12 01:11:12;;;;;;;30.23;21.75;;;0.20;99.90;;;;;;5081409;28;20048;-73
2022/12/12 01:13:39;;;;;;;29.48;20.48;;;0.20;99.90;;;;;;4976087;28;20043;-73
2022/12/12 01:16:05;;;;;;;28.90;21.05;;;0.20;99.90;;;;;;4875765;29;20059;-73
2022/12/12 01:18:32;;;;;;;31.13;22.38;;;0.20;99.90;;;;;;4841903;29;20152;-73
2022/12/12 01:20:57;;;;;;;29.40;22.02;;;0.20;99.90;;;;;;4753185;29;20043;-73
2022/12/12 01:26:01;;;;;;;29.20;21.23;;;0.20;99.90;;;;;;5212203;27;20481;-74
2022/12/12 01:28:27;;;;;;;33.40;22.40;;;0.20;99.90;;;;;;5112469;27;20043;-74
2022/12/12 01:30:53;;;;;;;32.78;22.70;;;0.20;99.90;;;;;;5109589;27;20054;-74
2022/12/12 01:33:18;;;;;;;34.97;23.58;;;0.20;99.90;;;;;;5057923;28;20045;-74
2022/12/12 01:35:44;;;;;;;34.13;21.73;;;0.20;99.90;;;;;;5021456;28;20048;-73
2022/12/12 01:38:10;;;;;;;32.90;22.05;;;0.30;99.90;;;;;;4972805;28;20050;-72
2022/12/12 01:40:35;;;;;;;31.58;22.65;;;0.20;99.90;;;;;;4926213;28;20059;-73
2022/12/12 01:43:01;;;;;;;33.22;23.33;;;0.20;99.90;;;;;;4701926;29;20095;-73
2022/12/12 01:47:36;;;;;;;31.45;22.23;;;0.20;99.90;;;;;;5196091;27;20132;-72
2022/12/12 01:50:06;;;;;;;31.33;21.73;;;0.20;99.90;;;;;;5117950;27;20043;-72
2022/12/12 01:52:43;;;;;;;29.27;21.55;;;0.20;99.90;;;;;;5091521;28;20391;-72
2022/12/12 01:55:16;;;;;;;30.67;22.02;;;0.20;99.90;;;;;;5012919;28;20062;-72
2022/12/12 01:57:45;;;;;;;31.70;22.58;;;0.20;99.90;;;;;;4955218;28;20035;-72
2022/12/12 02:00:13;;;;;;;34.42;22.17;;;0.20;99.90;;;;;;4893711;28;20504;-73
2022/12/12 02:02:43;;;;;;;30.50;22.25;;;0.20;99.90;;;;;;4689037;29;20069;-73
2022/12/12 02:05:24;;;;;;;30.30;21.40;;;0.20;99.90;;;;;;4411743;31;20065;-72
2022/12/12 02:08:00;;;;;;;30.48;21.77;;;0.20;99.90;;;;;;5207200;27;20128;-72
2022/12/12 02:10:25;;;;;;;30.85;21.42;;;0.20;99.90;;;;;;5169670;27;20050;-73
2022/12/12 02:12:58;;;;;;;30.92;21.10;;;0.20;99.90;;;;;;5169517;27;20046;-73
2022/12/12 02:15:27;;;;;;;;;;;0.20;99.90;;;;;;5153327;27;20404;-72
2022/12/12 02:18:31;;;;;;;29.65;21.00;;;0.20;99.90;;;;;;5074741;28;19925;-73
2022/12/12 02:21:17;;;;;;;30.73;21.88;;;0.20;99.90;;;;;;4869725;28;20051;-73
2022/12/12 02:24:14;;;;;;;27.73;20.75;;;0.20;99.90;;;;;;4480034;30;20067;-73
2022/12/12 02:27:09;;;;;;;29.10;21.13;;;0.20;99.90;;;;;;4028421;33;20147;-74
2022/12/12 02:30:10;;;;;;;32.88;22.20;;;0.20;99.90;;;;;;5164628;27;20137;-73
2022/12/12 02:32:48;;;;;;;28.63;20.02;;;0.20;99.90;;;;;;5106467;27;20497;-73
2022/12/12 02:35:58;;;;;;;30.58;21.42;;;0.20;99.90;;;;;;5102026;28;20040;-73
2022/12/12 02:38:30;;;;;;;31.45;21.65;;;0.20;99.90;;;;;;5048970;28;20494;-73
2022/12/12 02:40:58;;;;;;;32.35;22.38;;;0.20;99.90;;;;;;4964990;28;21901;-74
2022/12/12 02:43:35;;;;;;;30.73;21.55;;;0.20;99.90;;;;;;4953127;28;20481;-74
2022/12/12 02:46:18;;;;;;;30.33;21.33;;;0.20;99.90;;;;;;4807130;29;20521;-74
2022/12/12 02:51:44;;;;;;;30.40;21.85;;;0.20;99.90;;;;;;5197100;27;20140;-73
2022/12/12 02:54:19;;;;;;;28.92;21.15;;;0.20;99.90;;;;;;5134157;27;20126;-73
2022/12/12 02:56:49;;;;;;;29.42;20.83;;;0.20;99.90;;;;;;5112090;27;20398;-73
2022/12/12 02:59:21;;;;;;;32.75;21.65;;;0.20;99.90;;;;;;5087201;28;20048;-73
2022/12/12 03:01:53;;;;;;;29.38;21.48;;;0.20;99.90;;;;;;4994708;28;20044;-73
2022/12/12 03:07:48;;;;;;;30.13;21.58;;;0.20;99.90;;;;;;4629134;30;20475;-73
2022/12/12 03:10:33;;;;;;;28.95;20.58;;;0.20;99.90;;;;;;4279264;32;20146;-73
2022/12/12 03:13:27;;;;;;;28.20;20.95;;;0.20;99.90;;;;;;5200044;27;20137;-73
2022/12/12 03:16:20;;;;;;;26.83;20.42;;;0.20;99.90;;;;;;5130574;27;20049;-73
2022/12/12 03:18:57;;;;;;;30.77;21.98;;;0.20;99.90;;;;;;5088868;28;20564;-73
2022/12/12 03:21:25;;;;;;;29.48;21.00;;;0.20;99.90;;;;;;5066288;28;20043;-74
2022/12/12 03:23:56;;;;;;;30.27;20.63;;;0.20;99.90;;;;;;5025293;28;20496;-74
2022/12/12 03:26:35;;;;;;;30.92;21.40;;;0.20;99.90;;;;;;4925850;28;20047;-74
2022/12/12 03:29:06;;;;;;;29.90;21.52;;;0.30;99.90;;;;;;4741062;29;20124;-73
2022/12/12 03:31:36;;;;;;;29.13;21.95;;;0.20;99.90;;;;;;4292534;31;20074;-73
2022/12/12 03:34:21;;;;;;;28.70;20.55;;;0.20;99.90;;;;;;5197114;27;20148;-73
2022/12/12 03:37:00;;;;;;;28.33;21.30;;;0.20;99.90;;;;;;5116690;27;20043;-74
2022/12/12 03:39:37;;;;;;;28.90;21.30;;;0.20;99.90;;;;;;5127856;27;20038;-73
2022/12/12 03:42:34;;;;;;;31.60;21.75;;;0.20;99.90;;;;;;5087247;27;20040;-73
2022/12/12 03:45:08;;;;;;;30.13;22.10;;;0.20;99.90;;;;;;4953588;28;20152;-74
2022/12/12 03:47:47;;;;;;;29.65;21.23;;;0.20;99.90;;;;;;4873186;29;20054;-73
2022/12/12 03:50:29;;;;;;;28.58;21.42;;;0.20;99.90;;;;;;4624818;30;20521;-72
2022/12/12 03:56:17;;;;;;;30.43;23.30;;;0.20;99.90;;;;;;5200360;27;20379;-72
2022/12/12 03:58:49;;;;;;;28.23;20.80;;;0.20;99.90;;;;;;5137439;27;20678;-72
2022/12/12 04:01:15;;;;;;;29.08;20.95;;;0.20;99.90;;;;;;5125452;27;20047;-72
2022/12/12 04:03:43;;;;;;;25.88;20.50;;;0.20;99.90;;;;;;5136709;27;20388;-73
2022/12/12 04:06:25;;;;;;;28.88;21.88;;;0.20;99.90;;;;;;5069190;27;20042;-72
2022/12/12 04:18:00;;;;;;;33.72;24.80;;;0.20;99.90;;;;;;5198854;27;20375;-72
2022/12/12 04:23:31;;;;;;;26.67;21.08;;;0.20;99.90;;;;;;5055016;28;20045;-72
2022/12/12 04:26:40;;;;;;;27.52;20.35;;;0.20;99.90;;;;;;5038792;28;20046;-72
2022/12/12 04:29:15;;;;;;;29.25;21.48;;;0.30;99.90;;;;;;4960199;28;20104;-72
2022/12/12 04:31:56;;;;;;;25.75;19.85;;;0.20;99.90;;;;;;4791710;29;20067;-74
2022/12/12 04:34:41;;;;;;;28.90;20.88;;;0.10;99.90;;;;;;4572958;30;20148;-74
2022/12/12 04:39:47;;;;;;;29.35;20.75;;;0.20;99.90;;;;;;5190568;27;20132;-74
2022/12/12 04:42:17;;;;;;;27.08;19.90;;;0.20;99.90;;;;;;5082950;28;20047;-74
2022/12/12 04:44:44;;;;;;;27.00;19.73;;;0.20;99.90;;;;;;5088254;28;20048;-74
2022/12/12 04:47:12;;;;;;;29.52;21.00;;;0.20;99.90;;;;;;5048389;28;20117;-74
2022/12/12 04:49:41;;;;;;;28.75;21.92;;;0.20;99.90;;;;;;4945087;28;20055;-74
2022/12/12 04:52:10;;;;;;;27.83;20.23;;;0.20;99.90;;;;;;4911640;28;20055;-74
2022/12/12 04:54:59;;;;;;;27.40;20.02;;;0.20;99.90;;;;;;4688819;29;20117;-74
2022/12/12 04:57:31;;;;;;;25.30;18.95;;;0.20;99.90;;;;;;4534058;31;20102;-74
2022/12/12 05:00:10;;;;;;;25.05;19.00;;;0.20;99.90;;;;;;5198712;27;20764;-74
2022/12/12 05:02:50;;;;;;;26.77;19.73;;;0.20;99.90;;;;;;5130652;27;20039;-74
2022/12/12 05:05:35;;;;;;;25.52;18.52;;;0.20;99.90;;;;;;5106025;27;20063;-74
2022/12/12 05:08:10;;;;;;;24.48;19.70;;;0.20;99.90;;;;;;5087264;28;20172;-74
2022/12/12 05:10:42;;;;;;;25.70;19.60;;;0.20;99.90;;;;;;5020777;28;20046;-74
2022/12/12 05:13:17;;;;;;;25.63;19.23;;;0.20;99.90;;;;;;4990934;28;20050;-74
2022/12/12 05:15:44;;;;;;;26.17;20.35;;;0.30;99.90;;;;;;4850023;29;20047;-74
2022/12/12 05:18:20;;;;;;;26.88;19.95;;;0.20;99.90;;;;;;4323641;31;20510;-74
2022/12/12 05:20:58;;;;;;;25.38;19.95;;;0.20;99.90;;;;;;5196435;27;20128;-74
2022/12/12 05:23:23;;;;;;;26.23;19.92;;;0.20;99.90;;;;;;5138766;27;20042;-74
2022/12/12 05:25:49;;;;;;;28.40;20.20;;;0.20;99.90;;;;;;5160912;27;20373;-74
2022/12/12 05:28:14;;;;;;;26.58;20.15;;;0.20;99.90;;;;;;5097605;27;20040;-74
2022/12/12 05:30:40;;;;;;;26.80;20.27;;;0.20;99.90;;;;;;5068080;28;20046;-74
2022/12/12 05:33:05;;;;;;;26.75;18.92;;;0.20;99.90;;;;;;4928876;28;20484;-74
2022/12/12 05:35:32;;;;;;;26.30;19.25;;;0.20;99.90;;;;;;4817936;29;20138;-74
2022/12/12 05:38:00;;;;;;;26.00;20.55;;;0.20;99.90;;;;;;4564093;30;20518;-74
2022/12/12 05:42:54;;;;;;;26.42;20.10;;;0.20;99.90;;;;;;5199134;27;20878;-74
2022/12/12 05:45:19;;;;;;;24.13;19.10;;;0.20;99.90;;;;;;5133005;27;20043;-74
2022/12/12 05:47:45;;;;;;;27.13;20.38;;;0.20;99.90;;;;;;5129220;27;20043;-74
2022/12/12 05:50:11;;;;;;;25.92;19.83;;;0.20;99.90;;;;;;5101339;27;20036;-74
2022/12/12 05:52:36;;;;;;;25.85;19.88;;;0.20;99.90;;;;;;5066943;28;20037;-74
2022/12/12 05:55:02;;;;;;;26.10;19.58;;;0.20;99.90;;;;;;5009487;28;20092;-73
2022/12/12 05:57:28;;;;;;;23.67;19.27;;;0.20;99.90;;;;;;4880194;28;20417;-74
2022/12/12 05:59:54;;;;;;;25.60;19.83;;;0.20;99.90;;;;;;4463024;30;20057;-73
2022/12/12 06:03:27;;;;;;;25.25;19.58;;;0.20;99.90;;;;;;5192438;27;20148;-73
2022/12/12 06:05:53;;;;;;;27.67;20.83;;;0.20;99.90;;;;;;5134947;27;20484;-73
2022/12/12 06:08:19;;;;;;;26.50;20.40;;;0.20;99.90;;;;;;5151544;27;20047;-73
2022/12/12 06:10:44;;;;;;;26.77;20.20;;;0.20;99.90;;;;;;5151338;27;20038;-73
2022/12/12 06:13:11;;;;;;;25.65;19.80;;;0.20;99.90;;;;;;5081578;28;20121;-74
2022/12/12 06:15:40;;;;;;;26.60;20.45;;;0.20;99.90;;;;;;4971987;28;20051;-73
2022/12/12 06:18:07;;;;;;;24.60;19.67;;;0.20;99.90;;;;;;4746141;29;20428;-74
2022/12/12 06:20:34;;;;;;;27.90;19.98;;;0.20;99.90;;;;;;4390766;30;20068;-75
2022/12/12 06:25:39;;;;;;;27.27;19.92;;;0.30;99.90;;;;;;5189626;27;20136;-76
2022/12/12 06:28:05;;;;;;;27.65;20.65;;;0.10;99.90;;;;;;5127381;27;20039;-76
2022/12/12 06:30:31;;;;;;;26.30;21.08;;;0.20;99.90;;;;;;5114495;27;20049;-77
2022/12/12 06:32:57;;;;;;;28.27;20.88;;;0.20;99.90;;;;;;5069959;28;20402;-74
2022/12/12 06:35:25;;;;;;;29.58;21.48;;;0.20;99.90;;;;;;4968958;28;20127;-76
2022/12/12 06:37:51;;;;;;;28.45;21.38;;;0.10;99.90;;;;;;4876555;29;20053;-76
2022/12/12 06:40:17;;;;;;;30.08;21.35;;;0.20;99.90;;;;;;4863309;29;20504;-76
2022/12/12 06:44:52;;;;;;;27.20;20.40;;;0.10;99.90;;;;;;5187503;27;20480;-75
2022/12/12 06:47:17;;;;;;;27.13;20.27;;;0.20;99.90;;;;;;5114486;27;20039;-74
2022/12/12 06:49:43;;;;;;;29.05;21.80;;;0.10;99.90;;;;;;5093165;28;20453;-74
2022/12/12 06:52:09;;;;;;;27.67;20.55;;;0.10;99.90;;;;;;5077924;28;20047;-74
2022/12/12 06:54:35;;;;;;;25.92;20.02;;;0.10;99.90;;;;;;5045911;28;20483;-74
2022/12/12 06:57:01;;;;;;;29.10;21.13;;;0.10;99.90;;;;;;5041277;28;21465;-74
2022/12/12 06:59:28;;;;;;;28.42;20.50;;;0.10;99.90;;;;;;4935499;28;20164;-73
2022/12/12 07:01:57;;;;;;;27.95;20.85;;;0.10;99.90;;;;;;4638214;29;20368;-74
2022/12/12 07:06:57;;;;;;;28.42;20.95;;;0.10;99.90;;;;;;5197810;27;20132;-74
2022/12/12 07:09:23;;;;;;;28.08;21.02;;;0.00;99.90;;;;;;5117482;27;20034;-75
2022/12/12 07:11:49;;;;;;;26.40;20.20;;;0.10;99.90;;;;;;5135505;27;20040;-75
2022/12/12 07:14:15;;;;;;;27.52;20.70;;;0.00;99.90;;;;;;5117357;28;20055;-76
2022/12/12 07:16:41;;;;;;;28.92;21.27;;;0.00;99.90;;;;;;5006556;28;20114;-76
2022/12/12 07:19:15;;;;;;;26.63;21.25;;;0.10;99.90;;;;;;4866979;29;20062;-80
2022/12/12 07:21:41;;;;;;;27.70;20.75;;;0.00;99.90;;;;;;4665923;30;20160;-77
2022/12/12 07:24:28;;;;;;;32.03;24.73;;;0.00;99.90;;;;;;5191875;27;20410;-80
2022/12/12 07:26:56;;;;;;;29.70;22.52;;;0.10;99.90;;;;;;5150843;27;20043;-78
2022/12/12 07:29:25;;;;;;;28.08;21.15;;;0.00;99.90;;;;;;5109360;27;20127;-77
2022/12/12 07:31:51;;;;;;;28.77;21.45;;;0.00;99.90;;;;;;5128457;27;20045;-77
2022/12/12 07:34:17;;;;;;;28.08;21.25;;;0.00;99.90;;;;;;5075612;28;20123;-77
2022/12/12 07:36:45;;;;;;;27.73;21.40;;;0.00;99.90;;;;;;5002702;28;20050;-77
2022/12/12 07:39:12;;;;;;;29.77;21.38;;;0.10;99.90;;;;;;4874232;28;20258;-77
2022/12/12 07:44:13;;;;;;;28.88;21.52;;;0.00;99.90;;;;;;5143869;27;20127;-77
2022/12/12 07:46:41;;;;;;;27.85;21.98;;;0.00;99.90;;;;;;5089195;28;20075;-77
2022/12/12 07:49:10;;;;;;;28.98;22.35;;;0.00;99.90;;;;;;5083138;28;20284;-77
2022/12/12 07:51:44;;;;;;;28.27;21.45;;;0.00;99.90;;;;;;5073869;28;20056;-78
2022/12/12 07:54:09;;;;;;;28.58;20.73;;;0.10;99.90;;;;;;5025862;28;20037;-78
2022/12/12 07:56:35;;;;;;;27.30;21.35;;;0.10;99.90;;;;;;4916467;23;20046;-81
2022/12/12 07:59:01;;;;;;;29.92;21.65;;;0.20;99.90;;;;;;4772592;29;20498;-82
2022/12/12 08:01:28;;;;;;;28.45;21.55;;;0.10;99.90;;;;;;4416818;31;20415;-82
2022/12/12 08:04:54;;;;;;;29.88;21.33;;;0.10;99.90;;;;;;5212644;27;20128;-82
2022/12/12 08:07:20;;;;;;;29.48;22.13;;;0.10;99.90;;;;;;5154062;27;20039;-82
2022/12/12 08:09:45;;;;;;;27.67;21.10;;;0.10;99.90;;;;;;5141029;27;20382;-82
2022/12/12 08:12:11;;;;;;;27.73;21.48;;;0.10;99.90;;;;;;5133942;27;20161;-82
2022/12/12 08:14:37;;;;;;;29.17;21.67;;;0.10;99.90;;;;;;5125132;28;20039;-82
2022/12/12 08:17:02;;;;;;;31.15;22.63;;;0.10;99.90;;;;;;5125760;27;20092;-81
2022/12/12 08:19:28;;;;;;;29.45;22.15;;;0.10;99.90;;;;;;5092387;28;20040;-82
2022/12/12 08:21:54;;;;;;;29.25;21.98;;;0.20;99.90;;;;;;5073154;28;20044;-82
2022/12/12 08:24:19;;;;;;;28.88;21.88;;;0.10;99.90;;;;;;4995409;28;20495;-82
2022/12/12 08:26:45;;;;;;;29.27;22.55;;;0.20;99.90;;;;;;4949188;28;20052;-81
2022/12/12 08:29:18;;;;;;;28.00;21.45;;;0.20;99.90;;;;;;5212533;27;20119;-80
2022/12/12 08:31:43;;;;;;;28.92;21.63;;;0.20;99.90;;;;;;5164517;27;20403;-80
2022/12/12 08:34:09;;;;;;;28.88;21.92;;;0.20;99.90;;;;;;5128505;27;20121;-80
2022/12/12 08:36:35;;;;;;;29.55;22.08;;;0.20;99.90;;;;;;5135304;27;20039;-80
2022/12/12 08:39:06;;;;;;;28.85;21.15;;;0.20;99.90;;;;;;5096763;28;20051;-80
2022/12/12 08:41:32;;;;;;;30.30;22.63;;;0.30;99.90;;;;;;5067583;28;20051;-80
2022/12/12 08:43:58;;;;;;;30.92;22.45;;;0.30;99.90;;;;;;5064099;23;20049;-78
2022/12/12 08:46:26;;;;;;;27.80;22.00;;;0.30;99.90;;;;;;4946057;28;20054;-78
2022/12/12 08:49:08;;;;;;;27.80;21.50;;;0.30;99.90;;;;;;5212060;27;20124;-77
2022/12/12 08:51:37;;;;;;;28.95;21.10;;;0.40;99.90;;;;;;5152175;27;20042;-77
2022/12/12 08:54:03;;;;;;;29.02;20.65;;;0.50;99.90;;;;;;5165973;27;20038;-77
2022/12/12 08:56:29;;;;;;;28.83;21.23;;;0.40;99.90;;;;;;5124619;27;20043;-77
2022/12/12 08:59:05;;;;;;;29.13;21.73;;;0.40;99.90;;;;;;5069147;28;20041;-77
2022/12/12 09:01:31;;;;;;;27.40;21.73;;;0.50;99.90;;;;;;4963611;28;21362;-77
2022/12/12 09:03:57;;;;;;;29.25;22.92;;;0.50;99.90;;;;;;4739642;29;20058;-77
2022/12/12 09:06:25;;;;;;;28.35;21.75;;;0.50;99.90;;;;;;4603633;30;20105;-77
2022/12/12 09:09:49;;;;;;;31.80;22.27;;;0.60;99.90;;;;;;5212678;27;20127;-77
2022/12/12 09:12:18;;;;;;;29.33;21.90;;;0.60;99.90;;;;;;5156674;27;20043;-77
2022/12/12 09:14:43;;;;;;;29.95;22.55;;;0.60;99.90;;;;;;5112696;27;20085;-77
2022/12/12 09:17:12;;;;;;;30.35;22.55;;;0.70;99.90;;;;;;5099043;28;20489;-77
2022/12/12 09:19:39;;;;;;;29.60;22.52;;;0.80;99.90;;;;;;4999948;28;20137;-77
2022/12/12 09:22:07;;;;;;;29.13;23.65;;;0.70;99.90;;;;;;4851734;28;20048;-76
2022/12/12 09:24:32;;;;;;;31.02;23.65;;;0.70;99.90;;;;;;4418217;30;20061;-76
2022/12/12 09:27:10;;;;;;;29.85;23.00;;;0.80;99.90;;;;;;5199410;27;20129;-75
2022/12/12 09:29:38;;;;;;;29.83;22.70;;;0.80;99.90;;;;;;5147288;27;20053;-75
2022/12/12 09:32:05;;;;;;;27.42;22.10;;;0.80;99.90;;;;;;5152491;27;20480;-75
2022/12/12 09:34:32;;;;;;;28.55;21.85;;;0.80;99.90;;;;;;5121002;27;20054;-76
2022/12/12 09:36:59;;;;;;;29.92;23.13;;;0.90;99.90;;;;;;5039341;28;20050;-76
2022/12/12 09:39:24;;;;;;;29.70;21.85;;;0.90;99.90;;;;;;4942571;28;20092;-76
2022/12/12 09:41:50;;;;;;;31.05;23.27;;;0.90;99.90;;;;;;4744880;29;20077;-76
2022/12/12 09:44:19;;;;;;;29.67;22.88;;;1.00;99.90;;;;;;4565656;30;20063;-75
2022/12/12 09:47:04;;;;;;;28.42;22.02;;;1.00;99.90;;;;;;5212348;27;20135;-75
2022/12/12 09:49:38;;;;;;;30.45;23.02;;;1.00;99.90;;;;;;5145198;27;20125;-75
2022/12/12 09:52:04;;;;;;;28.33;22.75;;;1.10;99.90;;;;;;5133477;27;20039;-75
2022/12/12 09:54:30;;;;;;;29.70;22.55;;;1.10;99.90;;;;;;5125067;27;20061;-75
2022/12/12 09:57:16;;;;;;;28.80;22.08;;;1.10;99.90;;;;;;5068097;28;20492;-75
2022/12/12 10:00:05;;;;;;;29.58;22.15;;;1.20;99.90;;;;;;4929797;28;20052;-77
2022/12/12 10:02:42;;;;;;;25.75;20.77;;;1.20;99.90;;;;;;4620505;30;20536;-77
2022/12/12 10:05:43;;;;;;;30.42;22.15;;;1.20;99.90;;;;;;5197854;27;20462;-77
2022/12/12 10:08:18;;;;;;;26.40;20.92;;;1.20;99.90;;;;;;5113479;27;20050;-77
2022/12/12 10:10:48;;;;;;;26.77;21.73;;;1.30;99.90;;;;;;5118178;27;20046;-76
2022/12/12 10:13:20;;;;;;;25.83;20.45;;;1.30;99.90;;;;;;5118209;27;20193;-76
2022/12/12 10:15:53;;;;;;;27.45;21.60;;;1.30;99.90;;;;;;5085321;28;20083;-76
2022/12/12 10:18:36;;;;;;;25.40;20.42;;;1.30;99.90;;;;;;5040172;28;20053;-76
2022/12/12 10:21:08;;;;;;;25.98;21.20;;;1.30;99.90;;;;;;4676410;29;20991;-76
2022/12/12 10:23:49;;;;;;;25.92;20.67;;;1.40;99.90;;;;;;5196103;27;20140;-76
2022/12/12 10:26:17;;;;;;;26.48;21.13;;;1.40;99.90;;;;;;5127430;27;20500;-76
2022/12/12 10:28:43;;;;;;;26.63;20.95;;;1.50;99.90;;;;;;5133666;27;20038;-76
2022/12/12 10:31:25;;;;;;;25.95;21.15;;;1.50;99.90;;;;;;5127273;27;20031;-76
2022/12/12 10:34:03;;;;;;;24.60;19.08;;;1.50;99.90;;;;;;5058581;28;20071;-76
2022/12/12 10:36:37;;;;;;;24.17;19.33;;;1.50;99.90;;;;;;4858344;28;20134;-77
2022/12/12 10:42:26;;;;;;;24.30;19.95;;;1.60;99.90;;;;;;5206177;27;20132;-76
2022/12/12 10:44:59;;;;;;;27.77;20.73;;;1.60;99.90;;;;;;5107721;28;20385;-76
2022/12/12 10:47:27;;;;;;;24.38;19.13;;;1.60;99.90;;;;;;5112983;27;20441;-76
2022/12/12 10:50:00;;;;;;;24.98;19.65;;;1.70;99.90;;;;;;5114237;27;20545;-77
2022/12/12 10:52:25;;;;;;;26.30;20.95;;;1.70;99.90;;;;;;5055405;28;20492;-77
2022/12/12 10:54:57;;;;;;;25.52;20.67;;;1.70;99.90;;;;;;4921631;28;20053;-77
2022/12/12 10:57:26;;;;;;;25.10;19.70;;;1.80;99.90;;;;;;4647318;29;20063;-77
2022/12/12 11:01:19;;;;;;;24.67;19.15;;;1.80;99.90;;;;;;5191452;27;20455;-76
2022/12/12 11:03:50;;;;;;;24.63;19.33;;;1.80;99.90;;;;;;5105765;28;20064;-78
2022/12/12 11:06:50;;;;;;;26.98;21.13;;;1.80;99.90;;;;;;5082034;27;20083;-78
2022/12/12 11:09:38;;;;;;;22.90;18.73;;;1.80;99.90;;;;;;5021020;28;20389;-77
2022/12/12 11:12:13;;;;;;;24.27;19.73;;;1.90;99.90;;;;;;4885595;28;20101;-77
2022/12/12 11:14:46;;;;;;;23.90;18.75;;;2.00;99.90;;;;;;4650262;30;20064;-77
2022/12/12 11:17:38;;;;;;;24.33;19.67;;;2.00;99.90;;;;;;4290290;32;20064;-77
2022/12/12 11:20:17;;;;;;;24.23;19.63;;;2.00;99.90;;;;;;3837206;34;20094;-77
2022/12/12 11:22:56;;;;;;;23.85;18.55;;;2.00;99.90;;;;;;5203622;27;20132;-76
2022/12/12 11:25:28;;;;;;;24.35;18.60;;;2.00;99.90;;;;;;5151423;27;20051;-76
2022/12/12 11:28:02;;;;;;;23.77;19.52;;;2.00;99.90;;;;;;5115762;27;20081;-76
2022/12/12 11:30:39;;;;;;;22.17;17.95;;;2.10;99.90;;;;;;5111841;27;20092;-76
2022/12/12 11:33:10;;;;;;;24.90;20.02;;;2.10;99.90;;;;;;5082100;28;20067;-76
2022/12/12 11:35:37;;;;;;;23.65;19.23;;;2.20;99.90;;;;;;4994024;28;20043;-76
2022/12/12 11:38:25;;;;;;;24.08;19.00;;;2.00;99.90;;;;;;4887348;29;20054;-77
2022/12/12 11:41:03;;;;;;;24.60;19.55;;;2.10;99.90;;;;;;4587310;30;20058;-76
2022/12/12 11:43:58;;;;;;;21.52;16.95;;;2.00;99.90;;;;;;5184158;27;20150;-76
2022/12/12 11:46:30;;;;;;;23.05;19.10;;;2.10;99.90;;;;;;5099271;27;20039;-76
2022/12/12 11:48:59;;;;;;;25.20;19.47;;;2.00;99.90;;;;;;5113597;27;20131;-76
2022/12/12 11:51:42;;;;;;;23.30;18.40;;;2.00;99.90;;;;;;5089471;28;20297;-76
2022/12/12 11:54:28;;;;;;;23.80;19.13;;;2.10;99.90;;;;;;4927020;28;20148;-76
2022/12/12 11:56:53;;;;;;;23.95;18.92;;;2.10;99.90;;;;;;4758699;29;20040;-76
2022/12/12 12:00:06;;;;;;;25.45;19.33;;;2.20;99.90;;;;;;4415081;31;20583;-76
2022/12/12 12:04:31;;;;;;;22.52;18.25;;;2.30;99.90;;;;;;5193632;27;20151;-77
2022/12/12 12:07:15;;;;;;;23.85;18.30;;;2.60;99.90;;;;;;5070902;28;20064;-77
2022/12/12 12:10:13;;;;;;;23.77;18.45;;;2.80;99.90;;;;;;5072305;28;20053;-76
2022/12/12 12:13:17;;;;;;;22.20;17.13;;;3.00;99.90;;;;;;4994174;28;20138;-77
2022/12/12 12:15:53;;;;;;;22.83;18.90;;;3.00;99.90;;;;;;4839260;29;20060;-77
2022/12/12 12:18:49;;;;;;;22.88;18.20;;;3.00;99.90;;;;;;4493105;31;20059;-78
2022/12/12 12:21:47;;;;;;;22.77;17.98;;;3.00;99.90;;;;;;5193022;27;20134;-77
2022/12/12 12:24:36;;;;;;;24.30;19.67;;;3.00;99.90;;;;;;5125905;27;20045;-77
2022/12/12 12:27:07;;;;;;;25.05;19.65;;;2.90;99.90;;;;;;5094312;28;20481;-77
2022/12/12 12:29:47;;;;;;;24.75;19.17;;;2.90;99.90;;;;;;5017207;28;20524;-77
2022/12/12 12:32:42;;;;;;;25.42;19.52;;;2.80;99.90;;;;;;4897823;28;20053;-77
2022/12/12 12:35:29;;;;;;;24.70;19.98;;;2.80;99.90;;;;;;4829671;24;20640;-81
2022/12/12 12:41:14;;;;;;;27.52;20.88;;;3.10;99.90;;;;;;5212609;27;20488;-81
2022/12/12 12:44:09;;;;;;;29.88;22.13;;;3.10;99.90;;;;;;5147309;27;20054;-82
2022/12/12 12:46:37;;;;;;;30.33;22.48;;;3.20;99.90;;;;;;5093456;28;20054;-83
2022/12/12 12:49:23;;;;;;;30.65;22.90;;;3.10;99.90;;;;;;5089359;28;20047;-82
2022/12/12 12:52:04;;;;;;;28.98;22.00;;;3.00;99.90;;;;;;5048643;28;20071;-81
2022/12/12 12:54:36;;;;;;;27.33;21.13;;;2.80;99.90;;;;;;5076577;28;20390;-81
2022/12/12 12:57:04;;;;;;;32.28;23.98;;;2.60;99.90;;;;;;5063613;28;20493;-81
2022/12/12 12:59:36;;;;;;;31.05;23.65;;;2.60;99.90;;;;;;5039679;28;20052;-81
2022/12/12 13:02:25;;;;;;;32.67;23.97;;;2.40;99.90;;;;;;4973740;28;20042;-83
2022/12/12 13:05:21;;;;;;;35.03;26.42;;;2.40;99.90;;;;;;5186018;27;20475;-81
2022/12/12 13:08:28;;;;;;;32.42;24.83;;;2.40;99.90;;;;;;5154006;27;20038;-81
2022/12/12 13:11:00;;;;;;;34.65;25.77;;;2.50;99.90;;;;;;5075935;28;20051;-81
2022/12/12 13:13:28;;;;;;;36.35;25.98;;;2.60;99.90;;;;;;5091861;28;20060;-81
2022/12/12 13:16:15;;;;;;;31.70;24.63;;;2.70;99.90;;;;;;5047878;28;20564;-81
2022/12/12 13:18:43;;;;;;;32.78;24.23;;;2.70;99.90;;;;;;5017867;23;20051;-77
2022/12/12 13:21:38;;;;;;;36.00;26.15;;;2.70;99.90;;;;;;4815760;29;22012;-77
2022/12/12 13:24:11;;;;;;;34.35;25.85;;;2.60;99.90;;;;;;4420926;31;20072;-77
2022/12/12 13:26:52;;;;;;;38.20;29.25;;;2.70;99.90;;;;;;5206383;27;20439;-76
2022/12/12 13:29:29;;;;;;;36.90;26.30;;;2.60;99.90;;;;;;5123923;27;20043;-77
2022/12/12 13:32:22;;;;;;;38.00;28.98;;;2.50;99.90;;;;;;5091380;27;20072;-77
2022/12/12 13:35:00;;;;;;;40.10;28.40;;;2.40;99.90;;;;;;5066091;28;20461;-77
2022/12/12 13:37:32;;;;;;;40.35;28.85;;;2.40;99.90;;;;;;4997570;28;20508;-77
2022/12/12 13:40:05;;;;;;;36.13;27.02;;;2.40;99.90;;;;;;4677174;29;20062;-77
2022/12/12 13:44:36;;;;;;;37.08;27.48;;;2.30;99.90;;;;;;5212485;27;19919;-76
2022/12/12 13:47:10;;;;;;;41.38;29.25;;;2.20;99.90;;;;;;5128148;27;20046;-77
2022/12/12 13:49:55;;;;;;;38.30;28.77;;;2.20;99.90;;;;;;5106804;27;20044;-77
2022/12/12 13:52:22;;;;;;;38.90;27.42;;;2.10;99.90;;;;;;5093054;28;20565;-77
2022/12/12 13:54:52;;;;;;;39.88;30.02;;;2.00;99.90;;;;;;5021519;28;20054;-77
2022/12/12 13:57:29;;;;;;;38.55;28.92;;;2.00;99.90;;;;;;4671223;29;20094;-78
2022/12/12 14:02:27;;;;;;;40.85;30.05;;;1.90;99.90;;;;;;5181349;27;20152;-77
2022/12/12 14:05:15;;;;;;;39.35;29.10;;;1.80;99.90;;;;;;5151977;27;20053;-77
2022/12/12 14:08:08;;;;;;;37.47;28.35;;;1.70;99.90;;;;;;5093906;28;20146;-77
2022/12/12 14:10:38;;;;;;;39.22;29.58;;;1.70;99.90;;;;;;5051000;28;20045;-77
2022/12/12 14:13:54;;;;;;;40.97;29.27;;;1.60;99.90;;;;;;5050235;28;20132;-77